West Village, Colorado
Current Conditions -  °F | °C
As of 2:53 PM on Monday 26 Jan 2015 (Local Time) from KASE Reporting Station
Clear Clear  
Wind Chill: 46°   Ceiling: Unl
Heat Index: 48°   Visibility: 10mi
Dew Point: 23°   Wind: 5mph
Humidity: 37%   Direction: 330°NNW
Pressure: 30.36"   Gusts: NA
Location:  39.1905°N, 106.819°W
Report Text: KASE 262153Z 33004KT 10SM CLR 09/M05 A3036 RMK AO2 SLP246 T00891050
Loading
Personal Weather Stations






























Interactive Weather Map New forecast layout! Learn more

10-Day Weather Forecast

Advertisements
Track Severe Weather on mobile